sensor_id;sensor_type;location;lat;lon;timestamp;pressure;altitude;pressure_sealevel;temperature;humidity
70314;BME280;57725;47.526;18.986;2022-12-01T00:00:53;100455.56;;;7.50;92.26
70314;BME280;57725;47.526;18.986;2022-12-01T00:03:19;100462.44;;;7.51;92.23
70314;BME280;57725;47.526;18.986;2022-12-01T00:05:44;100461.66;;;7.49;92.30
70314;BME280;57725;47.526;18.986;2022-12-01T00:08:09;100472.06;;;7.49;92.33
70314;BME280;57725;47.526;18.986;2022-12-01T00:10:35;100470.31;;;7.49;92.21
70314;BME280;57725;47.526;18.986;2022-12-01T00:13:05;100466.06;;;7.45;92.30
70314;BME280;57725;47.526;18.986;2022-12-01T00:15:35;100477.25;;;7.49;92.24
70314;BME280;57725;47.526;18.986;2022-12-01T00:18:02;100469.47;;;7.49;92.16
70314;BME280;57725;47.526;18.986;2022-12-01T00:20:28;100474.66;;;7.49;92.32
70314;BME280;57725;47.526;18.986;2022-12-01T00:22:54;100471.22;;;7.47;92.50
70314;BME280;57725;47.526;18.986;2022-12-01T00:25:19;100468.66;;;7.45;92.56
70314;BME280;57725;47.526;18.986;2022-12-01T00:27:50;100474.69;;;7.47;92.42
70314;BME280;57725;47.526;18.986;2022-12-01T00:30:17;100479.03;;;7.47;92.16
70314;BME280;57725;47.526;18.986;2022-12-01T00:32:43;100478.19;;;7.46;92.70
70314;BME280;57725;47.526;18.986;2022-12-01T00:35:09;100479.91;;;7.46;92.18
70314;BME280;57725;47.526;18.986;2022-12-01T00:37:34;100483.38;;;7.46;92.36
70314;BME280;57725;47.526;18.986;2022-12-01T00:40:00;100479.91;;;7.47;92.15
70314;BME280;57725;47.526;18.986;2022-12-01T00:42:26;100479.06;;;7.45;92.41
70314;BME280;57725;47.526;18.986;2022-12-01T00:44:54;100482.56;;;7.44;92.31
70314;BME280;57725;47.526;18.986;2022-12-01T00:47:19;100484.28;;;7.44;92.45
70314;BME280;57725;47.526;18.986;2022-12-01T00:49:45;100481.66;;;7.45;92.19
70314;BME280;57725;47.526;18.986;2022-12-01T00:52:15;100489.47;;;7.45;92.10
70314;BME280;57725;47.526;18.986;2022-12-01T00:54:41;100486.88;;;7.45;92.34
70314;BME280;57725;47.526;18.986;2022-12-01T00:57:07;100489.50;;;7.44;92.33
70314;BME280;57725;47.526;18.986;2022-12-01T00:59:33;100490.41;;;7.41;92.17
70314;BME280;57725;47.526;18.986;2022-12-01T01:02:00;100495.56;;;7.44;92.29
70314;BME280;57725;47.526;18.986;2022-12-01T01:04:28;100488.66;;;7.42;92.13
70314;BME280;57725;47.526;18.986;2022-12-01T01:06:54;100489.53;;;7.42;92.36
70314;BME280;57725;47.526;18.986;2022-12-01T01:09:19;100491.28;;;7.40;92.25
70314;BME280;57725;47.526;18.986;2022-12-01T01:11:45;100487.78;;;7.43;92.34
70314;BME280;57725;47.526;18.986;2022-12-01T01:14:12;100475.69;;;7.40;92.54
70314;BME280;57725;47.526;18.986;2022-12-01T01:16:38;100473.97;;;7.39;92.35
70314;BME280;57725;47.526;18.986;2022-12-01T01:19:06;100476.53;;;7.41;92.17
70314;BME280;57725;47.526;18.986;2022-12-01T01:21:31;100478.28;;;7.40;92.13
70314;BME280;57725;47.526;18.986;2022-12-01T01:23:57;100478.25;;;7.42;92.31
70314;BME280;57725;47.526;18.986;2022-12-01T01:26:25;100479.16;;;7.39;92.29
70314;BME280;57725;47.526;18.986;2022-12-01T01:28:51;100477.44;;;7.40;92.27
70314;BME280;57725;47.526;18.986;2022-12-01T01:31:19;100482.63;;;7.40;92.18
70314;BME280;57725;47.526;18.986;2022-12-01T01:33:45;100471.44;;;7.38;92.23
70314;BME280;57725;47.526;18.986;2022-12-01T01:36:11;100464.53;;;7.35;92.29
70314;BME280;57725;47.526;18.986;2022-12-01T01:38:36;100469.72;;;7.35;92.14
70314;BME280;57725;47.526;18.986;2022-12-01T01:41:03;100474.03;;;7.38;92.37
70314;BME280;57725;47.526;18.986;2022-12-01T01:46:05;100476.69;;;7.35;92.38
70314;BME280;57725;47.526;18.986;2022-12-01T01:48:31;100481.88;;;7.35;92.25
70314;BME280;57725;47.526;18.986;2022-12-01T01:50:58;100486.19;;;7.36;92.18
70314;BME280;57725;47.526;18.986;2022-12-01T01:53:24;100484.47;;;7.35;92.24
70314;BME280;57725;47.526;18.986;2022-12-01T01:55:49;100484.47;;;7.36;92.22
70314;BME280;57725;47.526;18.986;2022-12-01T01:58:15;100480.19;;;7.32;92.14
70314;BME280;57725;47.526;18.986;2022-12-01T02:00:41;100477.53;;;7.35;92.34
70314;BME280;57725;47.526;18.986;2022-12-01T02:03:12;100480.16;;;7.34;92.20
70314;BME280;57725;47.526;18.986;2022-12-01T02:05:40;100480.19;;;7.32;91.98
70314;BME280;57725;47.526;18.986;2022-12-01T02:08:10;100482.78;;;7.34;91.85
70314;BME280;57725;47.526;18.986;2022-12-01T02:18:19;100480.22;;;7.31;91.92
70314;BME280;57725;47.526;18.986;2022-12-01T02:20:59;100486.28;;;7.31;92.08
70314;BME280;57725;47.526;18.986;2022-12-01T02:37:10;100490.69;;;7.27;91.97
70314;BME280;57725;47.526;18.986;2022-12-01T02:42:19;100479.47;;;7.25;92.01
70314;BME280;57725;47.526;18.986;2022-12-01T02:45:09;100481.19;;;7.26;91.95
70314;BME280;57725;47.526;18.986;2022-12-01T02:47:39;100482.00;;;7.27;92.02
70314;BME280;57725;47.526;18.986;2022-12-01T02:50:06;100476.88;;;7.25;92.01
70314;BME280;57725;47.526;18.986;2022-12-01T02:52:37;100469.97;;;7.23;91.82
70314;BME280;57725;47.526;18.986;2022-12-01T02:55:07;100468.22;;;7.23;92.09
70314;BME280;57725;47.526;18.986;2022-12-01T02:57:32;100467.34;;;7.24;91.91
70314;BME280;57725;47.526;18.986;2022-12-01T02:59:58;100471.72;;;7.22;92.08
70314;BME280;57725;47.526;18.986;2022-12-01T03:05:52;100472.59;;;7.21;91.93
70314;BME280;57725;47.526;18.986;2022-12-01T03:08:31;100469.97;;;7.23;91.85
70314;BME280;57725;47.526;18.986;2022-12-01T03:11:00;100462.19;;;7.21;91.97
70314;BME280;57725;47.526;18.986;2022-12-01T03:13:31;100464.81;;;7.21;92.13
70314;BME280;57725;47.526;18.986;2022-12-01T03:16:12;100469.16;;;7.21;91.70
70314;BME280;57725;47.526;18.986;2022-12-01T03:19:11;100463.94;;;7.21;91.66
70314;BME280;57725;47.526;18.986;2022-12-01T03:21:41;100464.03;;;7.16;91.85
70314;BME280;57725;47.526;18.986;2022-12-01T03:24:13;100469.19;;;7.18;91.96
70314;BME280;57725;47.526;18.986;2022-12-01T03:26:43;100470.06;;;7.18;91.85
70314;BME280;57725;47.526;18.986;2022-12-01T03:29:17;100464.88;;;7.17;91.85
70314;BME280;57725;47.526;18.986;2022-12-01T03:31:53;100455.41;;;7.14;91.60
70314;BME280;57725;47.526;18.986;2022-12-01T03:34:36;100462.28;;;7.17;91.84
70314;BME280;57725;47.526;18.986;2022-12-01T03:37:08;100457.06;;;7.17;91.64
70314;BME280;57725;47.526;18.986;2022-12-01T03:39:36;100454.59;;;7.12;91.73
70314;BME280;57725;47.526;18.986;2022-12-01T03:42:09;100460.56;;;7.16;91.84
70314;BME280;57725;47.526;18.986;2022-12-01T03:44:46;100458.88;;;7.15;91.75
70314;BME280;57725;47.526;18.986;2022-12-01T03:47:19;100463.22;;;7.14;91.91
70314;BME280;57725;47.526;18.986;2022-12-01T03:49:47;100451.13;;;7.12;91.71
70314;BME280;57725;47.526;18.986;2022-12-01T03:55:10;100457.16;;;7.14;91.85
70314;BME280;57725;47.526;18.986;2022-12-01T03:57:39;100460.63;;;7.14;91.83
70314;BME280;57725;47.526;18.986;2022-12-01T04:00:07;100453.75;;;7.10;91.81
70314;BME280;57725;47.526;18.986;2022-12-01T04:02:33;100458.94;;;7.12;91.76
70314;BME280;57725;47.526;18.986;2022-12-01T04:04:58;100458.94;;;7.12;91.82
70314;BME280;57725;47.526;18.986;2022-12-01T04:07:23;100453.78;;;7.09;91.61
70314;BME280;57725;47.526;18.986;2022-12-01T04:09:49;100454.63;;;7.09;91.98
70314;BME280;57725;47.526;18.986;2022-12-01T04:12:14;100453.75;;;7.10;91.58
70314;BME280;57725;47.526;18.986;2022-12-01T04:15:04;100455.50;;;7.10;91.52
70314;BME280;57725;47.526;18.986;2022-12-01T04:17:30;100455.50;;;7.10;91.68
70314;BME280;57725;47.526;18.986;2022-12-01T04:19:55;100450.34;;;7.07;91.77
70314;BME280;57725;47.526;18.986;2022-12-01T04:22:21;100451.19;;;7.09;91.81
70314;BME280;57725;47.526;18.986;2022-12-01T04:24:47;100449.47;;;7.08;91.67
70314;BME280;57725;47.526;18.986;2022-12-01T04:27:14;100446.88;;;7.08;91.79
70314;BME280;57725;47.526;18.986;2022-12-01T04:29:40;100447.75;;;7.07;91.50
70314;BME280;57725;47.526;18.986;2022-12-01T04:32:05;100446.88;;;7.06;91.76
70314;BME280;57725;47.526;18.986;2022-12-01T04:34:31;100452.13;;;7.05;91.78
70314;BME280;57725;47.526;18.986;2022-12-01T04:36:56;100441.78;;;7.03;91.54
70314;BME280;57725;47.526;18.986;2022-12-01T04:39:22;100449.56;;;7.03;91.58
70314;BME280;57725;47.526;18.986;2022-12-01T04:41:50;100451.31;;;7.03;91.84
70314;BME280;57725;47.526;18.986;2022-12-01T04:44:16;100449.63;;;7.00;91.48
70314;BME280;57725;47.526;18.986;2022-12-01T04:46:41;100459.97;;;7.03;92.12
70314;BME280;57725;47.526;18.986;2022-12-01T04:49:06;100466.03;;;7.04;91.74
70314;BME280;57725;47.526;18.986;2022-12-01T04:51:35;100468.66;;;7.02;91.87
70314;BME280;57725;47.526;18.986;2022-12-01T04:54:01;100475.63;;;7.00;91.66
70314;BME280;57725;47.526;18.986;2022-12-01T04:56:27;100472.16;;;7.00;91.68
70314;BME280;57725;47.526;18.986;2022-12-01T04:58:52;100475.63;;;7.00;91.81
70314;BME280;57725;47.526;18.986;2022-12-01T05:01:17;100473.91;;;6.99;91.53
70314;BME280;57725;47.526;18.986;2022-12-01T05:03:45;100467.88;;;6.97;91.51
70314;BME280;57725;47.526;18.986;2022-12-01T05:06:14;100469.59;;;6.97;91.54
70314;BME280;57725;47.526;18.986;2022-12-01T05:08:40;100470.50;;;6.96;91.85
70314;BME280;57725;47.526;18.986;2022-12-01T05:11:09;100471.34;;;6.96;91.37
70314;BME280;57725;47.526;18.986;2022-12-01T05:13:39;100473.94;;;6.98;91.62
70314;BME280;57725;47.526;18.986;2022-12-01T05:18:37;100470.47;;;6.97;91.55
70314;BME280;57725;47.526;18.986;2022-12-01T05:21:04;100463.56;;;6.95;91.63
70314;BME280;57725;47.526;18.986;2022-12-01T05:23:34;100462.69;;;6.96;91.42
70314;BME280;57725;47.526;18.986;2022-12-01T05:26:01;100462.72;;;6.94;91.83
70314;BME280;57725;47.526;18.986;2022-12-01T05:28:27;100463.56;;;6.95;91.47
70314;BME280;57725;47.526;18.986;2022-12-01T05:30:53;100467.06;;;6.94;91.58
70314;BME280;57725;47.526;18.986;2022-12-01T05:33:20;100467.13;;;6.92;91.41
70314;BME280;57725;47.526;18.986;2022-12-01T05:35:49;100466.19;;;6.93;91.33
70314;BME280;57725;47.526;18.986;2022-12-01T05:38:15;100465.41;;;6.91;91.34
70314;BME280;57725;47.526;18.986;2022-12-01T05:40:41;100469.66;;;6.94;91.58
70314;BME280;57725;47.526;18.986;2022-12-01T05:43:06;100470.63;;;6.89;91.76
70314;BME280;57725;47.526;18.986;2022-12-01T05:45:32;100462.81;;;6.91;91.52
70314;BME280;57725;47.526;18.986;2022-12-01T05:47:59;100458.47;;;6.90;91.52
70314;BME280;57725;47.526;18.986;2022-12-01T05:50:29;100459.34;;;6.90;91.11
70314;BME280;57725;47.526;18.986;2022-12-01T05:52:55;100461.97;;;6.89;91.57
70314;BME280;57725;47.526;18.986;2022-12-01T05:55:20;100466.31;;;6.87;91.26
70314;BME280;57725;47.526;18.986;2022-12-01T05:57:46;100465.41;;;6.89;91.69
70314;BME280;57725;47.526;18.986;2022-12-01T06:00:12;100464.59;;;6.86;91.16
70314;BME280;57725;47.526;18.986;2022-12-01T06:02:39;100476.69;;;6.88;91.37
70314;BME280;57725;47.526;18.986;2022-12-01T06:05:05;100468.09;;;6.85;91.53
70314;BME280;57725;47.526;18.986;2022-12-01T06:07:31;100478.47;;;6.86;91.61
70314;BME280;57725;47.526;18.986;2022-12-01T06:10:00;100495.81;;;6.84;91.33
70314;BME280;57725;47.526;18.986;2022-12-01T06:12:31;100491.47;;;6.85;91.27
70314;BME280;57725;47.526;18.986;2022-12-01T06:14:57;100492.38;;;6.84;91.29
70314;BME280;57725;47.526;18.986;2022-12-01T06:17:22;100493.22;;;6.84;91.24
70314;BME280;57725;47.526;18.986;2022-12-01T06:19:48;100492.38;;;6.84;91.42
70314;BME280;57725;47.526;18.986;2022-12-01T06:22:13;100494.09;;;6.83;91.28
70314;BME280;57725;47.526;18.986;2022-12-01T06:24:41;100496.72;;;6.82;91.44
70314;BME280;57725;47.526;18.986;2022-12-01T06:27:06;100488.19;;;6.75;91.58
70314;BME280;57725;47.526;18.986;2022-12-01T06:29:32;100494.13;;;6.82;90.97
70314;BME280;57725;47.526;18.986;2022-12-01T06:31:57;100496.78;;;6.80;91.43
70314;BME280;57725;47.526;18.986;2022-12-01T06:34:22;100495.94;;;6.80;90.97
70314;BME280;57725;47.526;18.986;2022-12-01T06:36:47;100497.66;;;6.79;91.63
70314;BME280;57725;47.526;18.986;2022-12-01T06:39:14;100495.06;;;6.79;91.55
70314;BME280;57725;47.526;18.986;2022-12-01T06:41:40;100493.31;;;6.80;91.25
70314;BME280;57725;47.526;18.986;2022-12-01T06:44:07;100494.22;;;6.77;91.29
70314;BME280;57725;47.526;18.986;2022-12-01T06:46:33;100486.41;;;6.79;91.42
70314;BME280;57725;47.526;18.986;2022-12-01T06:48:58;100485.56;;;6.78;91.13
70314;BME280;57725;47.526;18.986;2022-12-01T06:51:24;100487.28;;;6.78;91.14
70314;BME280;57725;47.526;18.986;2022-12-01T06:53:56;100487.31;;;6.76;91.16
70314;BME280;57725;47.526;18.986;2022-12-01T06:56:21;100484.75;;;6.75;91.58
70314;BME280;57725;47.526;18.986;2022-12-01T06:58:51;100486.44;;;6.76;91.21
70314;BME280;57725;47.526;18.986;2022-12-01T07:01:17;100492.53;;;6.75;91.27
70314;BME280;57725;47.526;18.986;2022-12-01T07:03:47;100496.88;;;6.74;91.31
70314;BME280;57725;47.526;18.986;2022-12-01T07:06:13;100494.28;;;6.73;91.64
70314;BME280;57725;47.526;18.986;2022-12-01T07:08:38;100497.72;;;6.75;91.31
70314;BME280;57725;47.526;18.986;2022-12-01T07:11:06;100496.88;;;6.74;91.08
70314;BME280;57725;47.526;18.986;2022-12-01T07:13:36;100497.72;;;6.75;91.59
70314;BME280;57725;47.526;18.986;2022-12-01T07:16:02;100491.72;;;6.71;91.31
70314;BME280;57725;47.526;18.986;2022-12-01T07:18:28;100495.19;;;6.72;91.42
70314;BME280;57725;47.526;18.986;2022-12-01T07:20:58;100497.78;;;6.72;91.52
70314;BME280;57725;47.526;18.986;2022-12-01T07:23:26;100490.00;;;6.70;91.50
70314;BME280;57725;47.526;18.986;2022-12-01T07:25:59;100490.00;;;6.70;91.26
70314;BME280;57725;47.526;18.986;2022-12-01T07:28:25;100496.94;;;6.70;91.11
70314;BME280;57725;47.526;18.986;2022-12-01T07:30:51;100496.06;;;6.71;91.74
70314;BME280;57725;47.526;18.986;2022-12-01T07:33:16;100488.28;;;6.69;91.50
70314;BME280;57725;47.526;18.986;2022-12-01T07:35:41;100494.41;;;6.68;91.36
70314;BME280;57725;47.526;18.986;2022-12-01T07:38:07;100495.28;;;6.67;91.78
70314;BME280;57725;47.526;18.986;2022-12-01T07:40:32;100495.28;;;6.67;91.70
70314;BME280;57725;47.526;18.986;2022-12-01T07:42:57;100496.13;;;6.68;91.33
70314;BME280;57725;47.526;18.986;2022-12-01T07:45:23;100499.59;;;6.68;91.54
70314;BME280;57725;47.526;18.986;2022-12-01T07:47:51;100495.28;;;6.67;91.42
70314;BME280;57725;47.526;18.986;2022-12-01T07:50:17;100493.53;;;6.68;91.91
70314;BME280;57725;47.526;18.986;2022-12-01T07:52:43;100490.97;;;6.66;91.53
70314;BME280;57725;47.526;18.986;2022-12-01T07:55:08;100502.22;;;6.67;91.63
70314;BME280;57725;47.526;18.986;2022-12-01T07:57:34;100504.81;;;6.65;91.66
70314;BME280;57725;47.526;18.986;2022-12-01T08:00:01;100502.22;;;6.65;91.82
70314;BME280;57725;47.526;18.986;2022-12-01T08:02:27;100499.66;;;6.64;91.60
70314;BME280;57725;47.526;18.986;2022-12-01T08:04:53;100498.06;;;6.57;91.83
70314;BME280;57725;47.526;18.986;2022-12-01T08:07:18;100505.72;;;6.63;91.38
70314;BME280;57725;47.526;18.986;2022-12-01T08:09:43;100497.91;;;6.64;91.54
70314;BME280;57725;47.526;18.986;2022-12-01T08:12:09;100504.00;;;6.62;91.32
70314;BME280;57725;47.526;18.986;2022-12-01T08:14:35;100503.16;;;6.61;91.58
70314;BME280;57725;47.526;18.986;2022-12-01T08:17:00;100509.22;;;6.62;91.69
70314;BME280;57725;47.526;18.986;2022-12-01T08:19:28;100508.31;;;6.63;91.99
70314;BME280;57725;47.526;18.986;2022-12-01T08:21:53;100505.75;;;6.61;91.63
70314;BME280;57725;47.526;18.986;2022-12-01T08:24:21;100502.28;;;6.61;91.65
70314;BME280;57725;47.526;18.986;2022-12-01T08:26:46;100499.69;;;6.61;91.62
70314;BME280;57725;47.526;18.986;2022-12-01T08:29:12;100497.97;;;6.61;91.63
70314;BME280;57725;47.526;18.986;2022-12-01T08:31:37;100494.50;;;6.61;91.64
70314;BME280;57725;47.526;18.986;2022-12-01T08:34:05;100495.34;;;6.61;91.80
70314;BME280;57725;47.526;18.986;2022-12-01T08:36:32;100504.03;;;6.60;92.19
70314;BME280;57725;47.526;18.986;2022-12-01T08:38:57;100496.31;;;6.57;91.84
70314;BME280;57725;47.526;18.986;2022-12-01T08:41:26;100507.50;;;6.61;91.64
70314;BME280;57725;47.526;18.986;2022-12-01T08:43:53;100493.66;;;6.59;91.77
70314;BME280;57725;47.526;18.986;2022-12-01T08:46:19;100500.56;;;6.60;91.94
70314;BME280;57725;47.526;18.986;2022-12-01T08:48:45;100512.69;;;6.61;92.35
70314;BME280;57725;47.526;18.986;2022-12-01T08:51:13;100507.59;;;6.56;92.01
70314;BME280;57725;47.526;18.986;2022-12-01T08:53:41;100504.97;;;6.58;92.04
70314;BME280;57725;47.526;18.986;2022-12-01T08:56:13;100502.31;;;6.59;92.13
70314;BME280;57725;47.526;18.986;2022-12-01T08:58:39;100507.50;;;6.59;91.97
70314;BME280;57725;47.526;18.986;2022-12-01T09:01:07;100505.78;;;6.60;92.02
70314;BME280;57725;47.526;18.986;2022-12-01T09:03:34;100506.72;;;6.57;92.06
70314;BME280;57725;47.526;18.986;2022-12-01T09:06:01;100505.78;;;6.58;91.84
70314;BME280;57725;47.526;18.986;2022-12-01T09:08:27;100503.19;;;6.58;92.12
70314;BME280;57725;47.526;18.986;2022-12-01T09:11:01;100511.00;;;6.58;91.96
70314;BME280;57725;47.526;18.986;2022-12-01T09:13:26;100513.59;;;6.58;92.03
70314;BME280;57725;47.526;18.986;2022-12-01T09:15:59;100509.31;;;6.57;92.02
70314;BME280;57725;47.526;18.986;2022-12-01T09:18:25;100502.41;;;6.54;92.03
70314;BME280;57725;47.526;18.986;2022-12-01T09:20:51;100499.78;;;6.56;91.91
70314;BME280;57725;47.526;18.986;2022-12-01T09:23:16;100498.91;;;6.57;92.72
70314;BME280;57725;47.526;18.986;2022-12-01T09:25:41;100491.97;;;6.58;92.22
70314;BME280;57725;47.526;18.986;2022-12-01T09:28:07;100491.13;;;6.56;92.40
70314;BME280;57725;47.526;18.986;2022-12-01T09:30:35;100488.53;;;6.56;92.20
70314;BME280;57725;47.526;18.986;2022-12-01T09:33:03;100493.72;;;6.57;92.53
70314;BME280;57725;47.526;18.986;2022-12-01T09:35:29;100488.53;;;6.57;92.40
70314;BME280;57725;47.526;18.986;2022-12-01T09:37:55;100482.50;;;6.55;91.94
70314;BME280;57725;47.526;18.986;2022-12-01T09:40:29;100492.00;;;6.56;92.47
70314;BME280;57725;47.526;18.986;2022-12-01T09:42:59;100486.81;;;6.54;92.66
70314;BME280;57725;47.526;18.986;2022-12-01T09:45:30;100492.03;;;6.54;92.40
70314;BME280;57725;47.526;18.986;2022-12-01T09:47:59;100489.44;;;6.54;92.32
70314;BME280;57725;47.526;18.986;2022-12-01T09:50:27;100494.59;;;6.56;92.10
70314;BME280;57725;47.526;18.986;2022-12-01T09:53:05;100492.03;;;6.54;92.17
70314;BME280;57725;47.526;18.986;2022-12-01T09:55:32;100487.72;;;6.53;92.17
70314;BME280;57725;47.526;18.986;2022-12-01T09:58:00;100481.66;;;6.53;92.66
70314;BME280;57725;47.526;18.986;2022-12-01T10:00:30;100479.88;;;6.55;92.17
70314;BME280;57725;47.526;18.986;2022-12-01T10:08:15;100478.16;;;6.54;92.47
70314;BME280;57725;47.526;18.986;2022-12-01T10:10:46;100469.56;;;6.50;92.51
70314;BME280;57725;47.526;18.986;2022-12-01T10:13:20;100471.25;;;6.54;92.60
70314;BME280;57725;47.526;18.986;2022-12-01T10:18:45;100472.09;;;6.55;92.22
70314;BME280;57725;47.526;18.986;2022-12-01T10:24:32;100470.38;;;6.54;92.66
70314;BME280;57725;47.526;18.986;2022-12-01T10:27:14;100469.53;;;6.53;92.08
70314;BME280;57725;47.526;18.986;2022-12-01T10:29:47;100458.28;;;6.51;92.13
70314;BME280;57725;47.526;18.986;2022-12-01T10:32:26;100453.97;;;6.52;92.11
70314;BME280;57725;47.526;18.986;2022-12-01T10:34:55;100452.19;;;6.54;92.47
70314;BME280;57725;47.526;18.986;2022-12-01T10:37:24;100453.94;;;6.53;92.54
70314;BME280;57725;47.526;18.986;2022-12-01T10:39:54;100453.94;;;6.53;92.06
70314;BME280;57725;47.526;18.986;2022-12-01T10:45:29;100450.47;;;6.53;92.46
70314;BME280;57725;47.526;18.986;2022-12-01T10:48:18;100450.47;;;6.53;92.16
70314;BME280;57725;47.526;18.986;2022-12-01T10:50:50;100447.88;;;6.53;92.27
70314;BME280;57725;47.526;18.986;2022-12-01T10:55:49;100440.09;;;6.51;92.80
70314;BME280;57725;47.526;18.986;2022-12-01T10:58:17;100443.53;;;6.53;92.22
70314;BME280;57725;47.526;18.986;2022-12-01T11:00:54;100442.69;;;6.53;92.29
70314;BME280;57725;47.526;18.986;2022-12-01T11:03:26;100446.13;;;6.53;92.54
70314;BME280;57725;47.526;18.986;2022-12-01T11:05:55;100440.94;;;6.53;92.32
70314;BME280;57725;47.526;18.986;2022-12-01T11:10:55;100440.09;;;6.51;92.48
70314;BME280;57725;47.526;18.986;2022-12-01T11:13:26;100444.41;;;6.54;92.38
70314;BME280;57725;47.526;18.986;2022-12-01T11:15:54;100431.47;;;6.51;92.82
70314;BME280;57725;47.526;18.986;2022-12-01T11:21:09;100431.41;;;6.54;92.27
70314;BME280;57725;47.526;18.986;2022-12-01T11:23:50;100422.75;;;6.53;92.44
70314;BME280;57725;47.526;18.986;2022-12-01T11:26:28;100417.56;;;6.53;92.63
70314;BME280;57725;47.526;18.986;2022-12-01T11:28:58;100417.56;;;6.53;92.22
70314;BME280;57725;47.526;18.986;2022-12-01T11:31:41;100415.84;;;6.52;92.33
70314;BME280;57725;47.526;18.986;2022-12-01T11:34:34;100412.38;;;6.53;92.73
70314;BME280;57725;47.526;18.986;2022-12-01T11:37:06;100418.44;;;6.54;92.75
70314;BME280;57725;47.526;18.986;2022-12-01T11:39:39;100403.75;;;6.51;92.40
70314;BME280;57725;47.526;18.986;2022-12-01T11:45:22;100398.63;;;6.47;92.50
70314;BME280;57725;47.526;18.986;2022-12-01T11:53:41;100402.03;;;6.50;92.90
70314;BME280;57725;47.526;18.986;2022-12-01T11:56:20;100405.44;;;6.54;92.36
70314;BME280;57725;47.526;18.986;2022-12-01T11:58:49;100402.88;;;6.52;92.33
70314;BME280;57725;47.526;18.986;2022-12-01T12:19:14;100395.94;;;6.53;92.76
70314;BME280;57725;47.526;18.986;2022-12-01T12:22:03;100403.72;;;6.53;93.03
70314;BME280;57725;47.526;18.986;2022-12-01T12:24:40;100398.53;;;6.53;92.75
70314;BME280;57725;47.526;18.986;2022-12-01T12:27:42;100390.72;;;6.53;92.68
70314;BME280;57725;47.526;18.986;2022-12-01T12:30:28;100396.78;;;6.53;92.77
70314;BME280;57725;47.526;18.986;2022-12-01T12:33:23;100394.19;;;6.53;92.49
70314;BME280;57725;47.526;18.986;2022-12-01T12:36:07;100393.34;;;6.51;92.43
70314;BME280;57725;47.526;18.986;2022-12-01T12:41:56;100393.31;;;6.54;92.51
70314;BME280;57725;47.526;18.986;2022-12-01T12:47:01;100387.28;;;6.52;92.55
70314;BME280;57725;47.526;18.986;2022-12-01T12:49:47;100395.03;;;6.54;92.76
70314;BME280;57725;47.526;18.986;2022-12-01T12:52:16;100387.25;;;6.54;93.05
70314;BME280;57725;47.526;18.986;2022-12-01T12:54:56;100387.25;;;6.54;92.48
70314;BME280;57725;47.526;18.986;2022-12-01T13:00:07;100389.84;;;6.54;92.45
70314;BME280;57725;47.526;18.986;2022-12-01T13:02:45;100390.72;;;6.54;92.92
70314;BME280;57725;47.526;18.986;2022-12-01T13:07:55;100396.75;;;6.55;92.60
70314;BME280;57725;47.526;18.986;2022-12-01T13:10:38;100388.13;;;6.54;92.47
70314;BME280;57725;47.526;18.986;2022-12-01T13:15:40;100378.63;;;6.52;92.62
70314;BME280;57725;47.526;18.986;2022-12-01T13:18:21;100379.47;;;6.54;92.49
70314;BME280;57725;47.526;18.986;2022-12-01T13:20:51;100390.72;;;6.54;92.45
70314;BME280;57725;47.526;18.986;2022-12-01T13:23:18;100382.91;;;6.54;92.46
70314;BME280;57725;47.526;18.986;2022-12-01T13:25:48;100382.06;;;6.54;92.84
70314;BME280;57725;47.526;18.986;2022-12-01T13:28:21;100381.19;;;6.55;93.02
70314;BME280;57725;47.526;18.986;2022-12-01T13:31:06;100381.19;;;6.55;92.86
70314;BME280;57725;47.526;18.986;2022-12-01T13:33:35;100382.06;;;6.54;92.75
70314;BME280;57725;47.526;18.986;2022-12-01T13:36:07;100385.50;;;6.56;92.87
70314;BME280;57725;47.526;18.986;2022-12-01T13:38:36;100384.63;;;6.56;92.66
70314;BME280;57725;47.526;18.986;2022-12-01T13:43:35;100384.63;;;6.56;92.48
70314;BME280;57725;47.526;18.986;2022-12-01T13:46:02;100387.22;;;6.56;92.71
70314;BME280;57725;47.526;18.986;2022-12-01T13:48:48;100384.63;;;6.56;92.74
70314;BME280;57725;47.526;18.986;2022-12-01T13:51:14;100386.38;;;6.55;92.82
70314;BME280;57725;47.526;18.986;2022-12-01T13:54:36;100386.38;;;6.55;92.43
70314;BME280;57725;47.526;18.986;2022-12-01T13:56:59;100379.47;;;6.52;92.85
70314;BME280;57725;47.526;18.986;2022-12-01T14:00:00;100382.03;;;6.56;92.79
70314;BME280;57725;47.526;18.986;2022-12-01T14:02:33;100383.78;;;6.55;92.55
70314;BME280;57725;47.526;18.986;2022-12-01T14:07:47;100386.38;;;6.55;93.12
70314;BME280;57725;47.526;18.986;2022-12-01T14:10:31;100382.91;;;6.54;93.04
70314;BME280;57725;47.526;18.986;2022-12-01T14:13:01;100376.88;;;6.54;92.73
70314;BME280;57725;47.526;18.986;2022-12-01T14:15:39;100379.44;;;6.56;92.93
70314;BME280;57725;47.526;18.986;2022-12-01T14:18:58;100380.28;;;6.56;92.98
70314;BME280;57725;47.526;18.986;2022-12-01T14:21:40;100369.91;;;6.56;92.92
70314;BME280;57725;47.526;18.986;2022-12-01T14:24:19;100369.94;;;6.54;93.16
70314;BME280;57725;47.526;18.986;2022-12-01T14:26:45;100370.81;;;6.53;92.65
70314;BME280;57725;47.526;18.986;2022-12-01T14:29:25;100367.31;;;6.56;92.58
70314;BME280;57725;47.526;18.986;2022-12-01T14:34:17;100369.03;;;6.56;92.40
70314;BME280;57725;47.526;18.986;2022-12-01T14:36:53;100375.97;;;6.55;92.92
70314;BME280;57725;47.526;18.986;2022-12-01T14:39:30;100380.28;;;6.56;92.69
70314;BME280;57725;47.526;18.986;2022-12-01T14:42:00;100377.69;;;6.56;93.17
70314;BME280;57725;47.526;18.986;2022-12-01T14:44:52;100377.69;;;6.56;93.01
70314;BME280;57725;47.526;18.986;2022-12-01T14:47:26;100370.81;;;6.53;93.05
70314;BME280;57725;47.526;18.986;2022-12-01T14:52:40;100371.66;;;6.56;92.53